Time;durP1;ratioP1;P1;durP2;ratioP2;P2;SDS_P1;SDS_P2;PMS_P1;PMS_P2;Temp;Humidity;BMP_temperature;BMP_pressure;BME280_temperature;BME280_humidity;BME280_pressure;Samples;Min_cycle;Max_cycle;Signal;HPM_P1;HPM_P2
2021/01/13 00:02:25;;;;;;;21.50;8.82;;;;;;;1.62;100.00;101166.66;5060601;28;20040;-72
2021/01/13 00:04:50;;;;;;;28.17;8.88;;;;;;;1.56;100.00;101166.78;5065912;28;20041;-72
2021/01/13 00:07:16;;;;;;;21.05;8.85;;;;;;;1.57;100.00;101166.75;5059220;28;20047;-72
2021/01/13 00:09:42;;;;;;;22.60;9.10;;;;;;;1.57;100.00;101173.81;5077097;28;20521;-72
2021/01/13 00:12:08;;;;;;;33.95;9.65;;;;;;;1.52;100.00;101171.28;5070093;28;20032;-72
2021/01/13 00:14:33;;;;;;;25.55;9.18;;;;;;;1.58;100.00;101173.81;5076872;28;20258;-72
2021/01/13 00:16:59;;;;;;;22.65;8.82;;;;;;;1.64;100.00;101175.44;5062745;28;20024;-72
2021/01/13 00:19:24;;;;;;;21.15;9.18;;;;;;;1.54;100.00;101180.03;5065674;28;20044;-71
2021/01/13 00:21:54;;;;;;;21.65;8.55;;;;;;;1.60;100.00;101181.72;5065298;28;20031;-72
2021/01/13 00:24:21;;;;;;;25.27;8.77;;;;;;;1.46;100.00;101184.63;5059610;28;20052;-72
2021/01/13 00:26:47;;;;;;;28.55;8.70;;;;;;;1.58;100.00;101187.03;5067155;28;20170;-72
2021/01/13 00:29:14;;;;;;;25.65;9.25;;;;;;;1.52;100.00;101181.00;5064217;28;20068;-72
2021/01/13 00:31:39;;;;;;;23.10;10.10;;;;;;;1.58;100.00;101183.50;5055415;28;20028;-71
2021/01/13 00:34:09;;;;;;;29.27;8.75;;;;;;;1.56;100.00;101175.59;5070440;28;20081;-72
2021/01/13 00:36:35;;;;;;;23.35;9.30;;;;;;;1.58;100.00;101179.09;5059963;28;20064;-72
2021/01/13 00:39:01;;;;;;;30.90;9.15;;;;;;;1.54;100.00;101180.03;5083713;28;20261;-72
2021/01/13 00:41:27;;;;;;;24.83;8.15;;;;;;;1.46;100.00;101181.97;5072704;28;20575;-72
2021/01/13 00:43:53;;;;;;;27.33;9.40;;;;;;;1.49;100.00;101175.75;5075702;28;20040;-72
2021/01/13 00:46:20;;;;;;;35.40;8.80;;;;;;;1.46;100.00;101165.25;5064541;28;20116;-72
2021/01/13 00:48:46;;;;;;;28.90;9.48;;;;;;;1.40;100.00;101175.94;5072822;28;20119;-72
2021/01/13 00:51:12;;;;;;;29.20;8.13;;;;;;;1.46;100.00;101183.75;5058410;28;20119;-72
2021/01/13 00:53:37;;;;;;;28.30;8.65;;;;;;;1.41;100.00;101183.84;5081653;28;20040;-72
2021/01/13 00:56:03;;;;;;;21.40;8.50;;;;;;;1.40;100.00;101182.09;5043859;28;20039;-72
2021/01/13 00:58:28;;;;;;;21.25;8.55;;;;;;;1.48;100.00;101185.44;5059595;28;20037;-72
2021/01/13 01:00:54;;;;;;;31.52;8.70;;;;;;;1.43;100.00;101194.38;5060418;28;20035;-72
2021/01/13 01:03:19;;;;;;;28.48;8.25;;;;;;;1.53;100.00;101188.91;5065607;28;20040;-72
2021/01/13 01:05:45;;;;;;;21.98;9.35;;;;;;;1.42;100.00;101180.28;5077724;28;20113;-72
2021/01/13 01:08:11;;;;;;;21.25;8.13;;;;;;;1.44;100.00;101181.13;5069305;28;20090;-72
2021/01/13 01:10:38;;;;;;;22.77;7.95;;;;;;;1.54;100.00;101174.75;5077038;28;20040;-72
2021/01/13 01:13:06;;;;;;;21.92;7.13;;;;;;;1.50;100.00;101182.78;5063693;28;20036;-72
2021/01/13 01:15:31;;;;;;;32.35;8.38;;;;;;;1.36;100.00;101174.28;5075656;28;20592;-72
2021/01/13 01:17:57;;;;;;;23.38;8.18;;;;;;;1.44;100.00;101183.78;5056671;28;20068;-71
2021/01/13 01:20:22;;;;;;;26.75;8.43;;;;;;;1.50;100.00;101191.59;5062479;28;20102;-72
2021/01/13 01:22:54;;;;;;;20.42;8.68;;;;;;;1.32;100.00;101189.31;5064469;28;20044;-72
2021/01/13 01:25:21;;;;;;;25.80;8.57;;;;;;;1.42;100.00;101184.72;5066239;28;20143;-72
2021/01/13 01:27:51;;;;;;;36.53;9.15;;;;;;;1.42;100.00;101184.72;5062697;28;20046;-72
2021/01/13 01:30:17;;;;;;;21.40;9.00;;;;;;;1.37;100.00;101181.28;5061645;28;20097;-72
2021/01/13 01:32:43;;;;;;;27.30;8.10;;;;;;;1.36;100.00;101183.03;5059869;28;20441;-72
2021/01/13 01:35:09;;;;;;;24.02;8.40;;;;;;;1.41;100.00;101186.50;5061009;28;20032;-73
2021/01/13 01:37:36;;;;;;;21.80;8.68;;;;;;;1.40;100.00;101189.16;5057909;28;20056;-73
2021/01/13 01:40:08;;;;;;;21.00;8.57;;;;;;;1.32;100.00;101196.34;5067636;28;20043;-73
2021/01/13 01:42:33;;;;;;;21.70;9.38;;;;;;;1.29;100.00;101199.97;5064269;28;20055;-73
2021/01/13 01:44:59;;;;;;;26.30;11.43;;;;;;;1.32;100.00;101201.66;5062017;28;20514;-73
2021/01/13 01:48:02;;;;;;;34.95;9.50;;;;;;;1.30;100.00;101196.38;5058841;28;20036;-73
2021/01/13 01:50:36;;;;;;;22.27;11.00;;;;;;;1.32;100.00;101205.16;5057072;28;20040;-72
2021/01/13 01:53:13;;;;;;;30.08;10.45;;;;;;;1.30;100.00;101206.97;5061580;28;20031;-72
2021/01/13 01:55:48;;;;;;;25.58;11.20;;;;;;;1.31;100.00;101195.47;5061908;28;20132;-72
2021/01/13 01:58:24;;;;;;;24.02;11.00;;;;;;;1.40;100.00;101202.38;5065171;28;20515;-72
2021/01/13 02:00:53;;;;;;;29.98;11.60;;;;;;;1.35;100.00;101199.84;5071281;28;20036;-72
2021/01/13 02:03:22;;;;;;;27.08;12.05;;;;;;;1.31;100.00;101198.13;5063705;28;20410;-72
2021/01/13 02:05:56;;;;;;;37.75;11.93;;;;;;;1.26;100.00;101207.94;5064587;28;20033;-72
2021/01/13 02:08:21;;;;;;;38.88;11.95;;;;;;;1.18;100.00;101212.47;5067931;28;20124;-72
2021/01/13 02:10:50;;;;;;;33.15;12.70;;;;;;;1.27;100.00;101209.69;5061815;28;20469;-72
2021/01/13 02:13:19;;;;;;;31.23;11.98;;;;;;;1.19;100.00;101211.56;5060067;28;20036;-72
2021/01/13 02:15:45;;;;;;;32.75;12.43;;;;;;;1.16;100.00;101204.59;5068805;28;20414;-72
2021/01/13 02:18:11;;;;;;;36.97;14.13;;;;;;;1.32;100.00;101205.16;5061751;28;20063;-72
2021/01/13 02:20:40;;;;;;;40.67;14.35;;;;;;;1.36;100.00;101206.84;5068280;28;20524;-71
2021/01/13 02:23:28;;;;;;;38.15;13.90;;;;;;;1.40;100.00;101205.03;5066957;28;20036;-72
2021/01/13 02:26:32;;;;;;;40.13;14.57;;;;;;;1.43;100.00;101203.19;5070410;28;20039;-72
2021/01/13 02:29:03;;;;;;;34.08;13.90;;;;;;;1.45;100.00;101206.69;5063143;28;20040;-72
2021/01/13 02:31:34;;;;;;;47.20;15.25;;;;;;;1.35;100.00;101205.13;5063665;28;20032;-72
2021/01/13 02:34:08;;;;;;;33.47;14.55;;;;;;;1.37;100.00;101203.31;5065724;28;20024;-72
2021/01/13 02:36:33;;;;;;;36.78;14.07;;;;;;;1.26;100.00;101200.00;5072545;28;20036;-73
2021/01/13 02:39:01;;;;;;;35.30;14.25;;;;;;;1.34;100.00;101208.66;5088556;28;20107;-72
2021/01/13 02:41:30;;;;;;;33.30;14.57;;;;;;;1.35;100.00;101207.78;5054660;28;20434;-72
2021/01/13 02:44:01;;;;;;;42.60;15.57;;;;;;;1.36;100.00;101209.50;5070348;28;20040;-72
2021/01/13 02:46:36;;;;;;;42.80;14.82;;;;;;;1.35;100.00;101212.19;5059180;28;20039;-72
2021/01/13 02:49:03;;;;;;;31.67;14.55;;;;;;;1.30;100.00;101208.75;5077144;28;20037;-72
2021/01/13 02:51:30;;;;;;;34.25;14.60;;;;;;;1.28;100.00;101203.50;5058398;28;20473;-72
2021/01/13 02:53:56;;;;;;;33.63;14.45;;;;;;;1.31;100.00;101214.00;5060678;28;20036;-72
2021/01/13 02:56:40;;;;;;;28.88;14.05;;;;;;;1.24;100.00;101222.94;5061435;28;20040;-73
2021/01/13 02:59:08;;;;;;;30.63;15.13;;;;;;;1.26;100.00;101220.28;5067257;28;20693;-72
2021/01/13 03:01:36;;;;;;;38.72;15.98;;;;;;;1.19;100.00;101223.03;5064568;28;20037;-72
2021/01/13 03:04:03;;;;;;;35.75;14.77;;;;;;;1.36;100.00;101222.72;5063611;28;20041;-72
2021/01/13 03:06:29;;;;;;;41.45;15.35;;;;;;;1.36;100.00;101228.00;5058548;28;20045;-72
2021/01/13 03:09:08;;;;;;;31.00;14.90;;;;;;;1.32;100.00;101222.81;5063161;28;20039;-72
2021/01/13 03:11:35;;;;;;;39.50;16.17;;;;;;;1.36;100.00;101228.00;5080122;28;20075;-72
2021/01/13 03:14:12;;;;;;;42.72;15.07;;;;;;;1.49;100.00;101229.53;5057415;28;20475;-71
2021/01/13 03:16:44;;;;;;;51.08;15.93;;;;;;;1.38;100.00;101236.78;5056366;28;20036;-72
2021/01/13 03:19:17;;;;;;;40.58;15.10;;;;;;;1.47;100.00;101238.41;5064321;28;20090;-72
2021/01/13 03:21:57;;;;;;;;;;;;;;;1.46;100.00;101234.88;5083767;28;20048;-72
2021/01/13 03:24:50;;;;;;;36.38;15.52;;;;;;;1.51;100.00;101238.31;5074741;28;19927;-72
2021/01/13 03:27:17;;;;;;;41.58;17.35;;;;;;;1.58;100.00;101239.94;5067930;28;20051;-73
2021/01/13 03:29:46;;;;;;;42.30;17.70;;;;;;;1.53;100.00;101241.81;5065583;28;20509;-73
2021/01/13 03:32:32;;;;;;;45.08;17.50;;;;;;;1.63;100.00;101248.66;5061043;28;20047;-72
2021/01/13 03:35:12;;;;;;;42.75;17.65;;;;;;;1.50;100.00;101236.56;5068944;28;20039;-71
2021/01/13 03:37:59;;;;;;;48.33;18.52;;;;;;;1.59;100.00;101236.41;5065068;28;20032;-72
2021/01/13 03:40:28;;;;;;;38.42;16.20;;;;;;;1.63;100.00;101227.50;5069167;28;20032;-73
2021/01/13 03:42:57;;;;;;;36.85;16.50;;;;;;;1.58;100.00;101224.06;5087790;28;20044;-72
2021/01/13 03:45:31;;;;;;;39.85;16.27;;;;;;;1.59;100.00;101230.25;5070791;28;20567;-73
2021/01/13 03:47:59;;;;;;;42.78;18.45;;;;;;;1.58;100.00;101226.72;5065487;28;20043;-72
2021/01/13 03:50:53;;;;;;;42.70;17.75;;;;;;;1.54;100.00;101230.31;5065082;28;20040;-73
2021/01/13 03:53:20;;;;;;;;;;;;;;;1.52;100.00;101234.78;5056191;28;20040;-71
2021/01/13 03:55:46;;;;;;;51.85;20.65;;;;;;;1.59;100.00;101228.47;5068938;28;19912;-72
2021/01/13 03:58:14;;;;;;;48.00;18.73;;;;;;;1.59;100.00;101220.53;5050614;28;20025;-73
2021/01/13 04:00:42;;;;;;;39.70;17.33;;;;;;;1.62;100.00;101217.81;5060020;28;20036;-73
2021/01/13 04:03:25;;;;;;;38.60;17.90;;;;;;;1.67;100.00;101220.34;5090521;28;20120;-72
2021/01/13 04:06:09;;;;;;;42.67;17.90;;;;;;;1.65;100.00;101229.25;5063665;28;20489;-73
2021/01/13 04:08:40;;;;;;;37.00;16.92;;;;;;;1.62;100.00;101225.75;5074086;28;20766;-73
2021/01/13 04:11:21;;;;;;;39.10;17.05;;;;;;;1.66;100.00;101217.75;5079731;28;20032;-73
2021/01/13 04:13:49;;;;;;;51.00;19.90;;;;;;;1.75;100.00;101220.22;5069353;28;20111;-73
2021/01/13 04:16:17;;;;;;;83.97;30.15;;;;;;;1.88;100.00;101216.41;5066566;28;20044;-70
2021/01/13 04:18:45;;;;;;;77.03;28.50;;;;;;;1.76;100.00;101219.31;5064906;28;20032;-72
2021/01/13 04:21:13;;;;;;;61.65;24.80;;;;;;;1.88;100.00;101216.41;5068080;28;20450;-72
2021/01/13 04:23:39;;;;;;;75.40;26.35;;;;;;;1.81;100.00;101198.91;5066282;28;20136;-71
2021/01/13 04:26:05;;;;;;;106.47;37.15;;;;;;;1.96;100.00;101214.47;5058616;28;20462;-72
2021/01/13 04:28:31;;;;;;;70.53;23.20;;;;;;;1.86;100.00;101227.03;5070052;28;20067;-71
2021/01/13 04:30:57;;;;;;;45.78;18.23;;;;;;;1.79;100.00;101235.16;5082650;28;20309;-72
2021/01/13 04:33:24;;;;;;;47.17;16.35;;;;;;;1.83;100.00;101234.16;5071958;28;20040;-72
2021/01/13 04:35:51;;;;;;;41.95;15.48;;;;;;;1.77;100.00;101239.59;5071825;28;20454;-70
2021/01/13 04:38:21;;;;;;;40.67;17.02;;;;;;;1.76;100.00;101235.19;5066229;28;20067;-72
2021/01/13 04:41:03;;;;;;;43.22;16.73;;;;;;;1.74;100.00;101229.03;5064683;28;20479;-73
2021/01/13 04:43:48;;;;;;;37.55;16.90;;;;;;;1.75;100.00;101220.22;5059308;28;20040;-72
2021/01/13 04:46:30;;;;;;;47.72;20.00;;;;;;;1.89;100.00;101218.16;5050229;28;20332;-72
2021/01/13 04:49:01;;;;;;;43.33;19.37;;;;;;;1.73;100.00;101214.09;5078060;28;20043;-73
2021/01/13 04:51:31;;;;;;;51.08;21.65;;;;;;;1.92;100.00;101213.66;5062557;28;20032;-72
2021/01/13 04:53:57;;;;;;;51.05;21.33;;;;;;;2.00;100.00;101213.50;5056331;28;20068;-72
2021/01/13 04:56:25;;;;;;;49.03;21.15;;;;;;;1.98;100.00;101213.53;5058732;28;20491;-72
2021/01/13 04:59:12;;;;;;;55.33;23.15;;;;;;;1.94;100.00;101217.16;5068176;28;20044;-72
2021/01/13 05:02:09;;;;;;;59.45;21.52;;;;;;;1.97;100.00;101205.63;5058809;28;20029;-72
2021/01/13 05:05:05;;;;;;;51.65;23.38;;;;;;;1.92;100.00;101212.78;5088971;28;20157;-72
2021/01/13 05:07:31;;;;;;;53.90;22.92;;;;;;;2.13;100.00;101209.69;5089099;28;20137;-72
2021/01/13 05:10:16;;;;;;;60.47;26.77;;;;;;;2.14;100.00;101199.97;5068413;28;20080;-72
2021/01/13 05:12:55;;;;;;;48.15;19.15;;;;;;;2.09;100.00;101196.56;5071356;28;20020;-72
2021/01/13 05:15:22;;;;;;;63.28;27.02;;;;;;;1.99;100.00;101198.53;5064128;28;20456;-72
2021/01/13 05:17:56;;;;;;;41.95;19.27;;;;;;;1.98;100.00;101196.78;5060948;28;20040;-72
2021/01/13 05:20:24;;;;;;;45.67;20.70;;;;;;;2.04;100.00;101201.94;5068194;28;20488;-72
2021/01/13 05:22:54;;;;;;;55.90;24.10;;;;;;;2.15;100.00;101202.59;5063221;28;20047;-72
2021/01/13 05:25:40;;;;;;;53.40;21.38;;;;;;;2.15;100.00;101201.72;5068572;28;20554;-73
2021/01/13 05:28:12;;;;;;;56.88;23.38;;;;;;;2.13;100.00;101191.16;5066583;28;20717;-70
2021/01/13 05:30:58;;;;;;;58.30;25.23;;;;;;;2.26;100.00;101203.22;5060633;28;20475;-72
2021/01/13 05:33:30;;;;;;;46.03;20.70;;;;;;;2.25;100.00;101201.47;5060597;28;20046;-73
2021/01/13 05:35:58;;;;;;;51.83;23.95;;;;;;;2.34;100.00;101203.94;5062146;28;20036;-72
2021/01/13 05:38:38;;;;;;;53.80;21.83;;;;;;;2.36;100.00;101196.78;5086253;28;20039;-72
2021/01/13 05:41:14;;;;;;;64.07;24.02;;;;;;;2.40;100.00;101195.84;5067028;28;20028;-73
2021/01/13 05:43:46;;;;;;;63.92;23.92;;;;;;;2.36;100.00;101188.84;5067748;28;20032;-72
2021/01/13 05:46:13;;;;;;;51.90;22.75;;;;;;;2.44;100.00;101186.03;5060798;28;20037;-73
2021/01/13 05:48:46;;;;;;;57.67;22.50;;;;;;;2.29;100.00;101187.25;5064170;28;20044;-72
2021/01/13 05:51:12;;;;;;;59.17;25.42;;;;;;;2.38;100.00;101191.47;5068965;28;20398;-72
2021/01/13 05:53:38;;;;;;;41.65;17.05;;;;;;;2.39;100.00;101183.50;5060901;28;20040;-74
2021/01/13 05:56:04;;;;;;;53.10;19.45;;;;;;;2.40;100.00;101182.59;5070402;28;20024;-73
2021/01/13 05:58:30;;;;;;;65.40;28.75;;;;;;;2.23;100.00;101175.91;5059352;28;20036;-73
2021/01/13 06:01:00;;;;;;;36.30;17.52;;;;;;;2.35;100.00;101179.16;5070497;28;20033;-72
2021/01/13 06:03:29;;;;;;;47.92;16.88;;;;;;;2.41;100.00;101186.09;5056921;28;20044;-73
2021/01/13 06:05:59;;;;;;;37.15;18.33;;;;;;;2.50;100.00;101177.06;5066213;28;20178;-71
2021/01/13 06:08:32;;;;;;;34.50;14.35;;;;;;;2.44;100.00;101183.38;5062394;28;20175;-71
2021/01/13 06:10:59;;;;;;;;;;;;;;;2.47;100.00;101185.09;5069639;28;20075;-71
2021/01/13 06:13:30;;;;;;;31.38;11.73;;;;;;;2.41;100.00;101179.00;5071945;28;19919;-71
2021/01/13 06:16:04;;;;;;;35.67;14.73;;;;;;;2.44;100.00;101183.38;5053358;28;20036;-71
2021/01/13 06:18:32;;;;;;;36.15;14.52;;;;;;;2.40;100.00;101163.19;5061938;28;20125;-74
2021/01/13 06:20:59;;;;;;;30.67;13.10;;;;;;;2.52;100.00;101176.13;5070009;28;20085;-73
2021/01/13 06:23:28;;;;;;;34.05;14.30;;;;;;;2.55;100.00;101176.03;5061490;28;20049;-73
2021/01/13 06:25:55;;;;;;;27.00;10.95;;;;;;;2.61;100.00;101180.31;5062393;28;20040;-73
2021/01/13 06:28:46;;;;;;;35.70;12.32;;;;;;;2.52;100.00;101183.19;5065899;28;20533;-73
2021/01/13 06:31:14;;;;;;;29.17;13.13;;;;;;;2.49;100.00;101183.25;5056894;28;20127;-73
2021/01/13 06:34:05;;;;;;;33.33;12.00;;;;;;;2.52;100.00;101184.06;5078737;28;20036;-73
2021/01/13 06:36:42;;;;;;;37.85;11.90;;;;;;;2.50;100.00;101185.88;5073195;28;20048;-73
2021/01/13 06:39:09;;;;;;;30.38;11.40;;;;;;;2.47;100.00;101179.78;5077385;28;20241;-73
2021/01/13 06:41:47;;;;;;;31.48;12.35;;;;;;;2.38;100.00;101181.75;5044472;28;20033;-73
2021/01/13 06:44:14;;;;;;;31.58;13.00;;;;;;;2.28;100.00;101174.94;5061506;28;20045;-73
2021/01/13 06:46:39;;;;;;;31.10;12.63;;;;;;;2.34;100.00;101177.44;5068841;28;20049;-73
2021/01/13 06:49:13;;;;;;;33.80;13.32;;;;;;;2.29;100.00;101176.66;5069404;28;20031;-72
2021/01/13 06:51:44;;;;;;;38.35;14.00;;;;;;;2.37;100.00;101180.00;5072878;28;20033;-73
2021/01/13 06:54:13;;;;;;;40.78;14.27;;;;;;;2.28;100.00;101182.00;5076503;28;20121;-76
2021/01/13 06:56:52;;;;;;;43.10;14.75;;;;;;;2.28;100.00;101180.22;5073795;28;20044;-75
2021/01/13 06:59:20;;;;;;;34.05;14.13;;;;;;;2.16;100.00;101183.13;5082749;28;20509;-73
2021/01/13 07:02:00;;;;;;;35.35;15.32;;;;;;;2.15;100.00;101178.75;5069772;28;20034;-73
2021/01/13 07:04:27;;;;;;;45.27;15.40;;;;;;;2.09;100.00;101178.91;5081668;28;20040;-73
2021/01/13 07:07:05;;;;;;;34.50;14.57;;;;;;;2.09;100.00;101189.50;5080700;28;20055;-73
2021/01/13 07:09:34;;;;;;;43.15;15.02;;;;;;;2.05;100.00;101182.50;5069532;28;20181;-73
2021/01/13 07:12:07;;;;;;;36.78;14.90;;;;;;;2.11;100.00;101185.00;5075634;28;20033;-73
2021/01/13 07:14:37;;;;;;;46.03;16.23;;;;;;;2.04;100.00;101186.03;5072234;28;20066;-73
2021/01/13 07:17:06;;;;;;;47.38;15.88;;;;;;;2.03;100.00;101184.34;5077374;28;20040;-73
2021/01/13 07:19:34;;;;;;;41.33;15.55;;;;;;;2.04;100.00;101175.44;5075001;28;20035;-73
2021/01/13 07:21:59;;;;;;;35.58;16.60;;;;;;;2.04;100.00;101183.41;5068014;28;20636;-73
2021/01/13 07:24:27;;;;;;;44.78;15.82;;;;;;;2.05;100.00;101182.50;5075862;28;20035;-73
2021/01/13 07:26:55;;;;;;;47.97;17.35;;;;;;;2.03;100.00;101192.28;5083202;28;20371;-73
2021/01/13 07:29:20;;;;;;;43.92;17.38;;;;;;;2.01;100.00;101188.78;5074255;28;20596;-73
2021/01/13 07:31:46;;;;;;;44.80;16.73;;;;;;;1.84;100.00;101182.97;5076829;28;20071;-73
2021/01/13 07:34:32;;;;;;;40.10;16.42;;;;;;;1.92;100.00;101191.59;5069868;28;20119;-73
2021/01/13 07:37:00;;;;;;;38.45;17.90;;;;;;;1.87;100.00;101191.72;5077003;28;20561;-73
2021/01/13 07:40:04;;;;;;;48.00;18.70;;;;;;;1.94;100.00;101195.09;5065728;28;20044;-73
2021/01/13 07:42:41;;;;;;;41.92;18.65;;;;;;;1.89;100.00;101191.69;5063597;28;20659;-73
2021/01/13 07:45:19;;;;;;;37.08;18.98;;;;;;;1.84;100.00;101201.50;5065839;28;20028;-74
2021/01/13 07:48:29;;;;;;;47.67;19.67;;;;;;;1.82;100.00;101196.22;5089328;28;20036;-73
2021/01/13 07:51:05;;;;;;;48.45;19.48;;;;;;;1.79;100.00;101200.72;5054871;28;20127;-73
2021/01/13 07:53:36;;;;;;;50.08;22.25;;;;;;;1.78;100.00;101188.41;5063459;28;20124;-73
2021/01/13 07:56:03;;;;;;;58.35;22.73;;;;;;;1.71;100.00;101192.06;5063921;28;20041;-73
2021/01/13 07:58:31;;;;;;;49.97;20.73;;;;;;;1.78;100.00;101196.34;5101989;28;20036;-73
2021/01/13 08:01:11;;;;;;;47.80;21.17;;;;;;;1.86;100.00;101199.69;5070119;28;20036;-73
2021/01/13 08:03:49;;;;;;;49.20;21.10;;;;;;;1.89;100.00;101203.16;5070351;28;20036;-73
2021/01/13 08:06:35;;;;;;;46.67;20.80;;;;;;;1.78;100.00;101202.50;5074302;28;20392;-73
2021/01/13 08:09:08;;;;;;;49.78;22.42;;;;;;;1.87;100.00;101199.66;5075407;28;20119;-73
2021/01/13 08:11:45;;;;;;;61.65;20.80;;;;;;;1.88;100.00;101212.00;5070430;28;20160;-73
2021/01/13 08:14:26;;;;;;;47.47;21.33;;;;;;;1.78;100.00;101213.09;5073607;28;20064;-73
2021/01/13 08:17:25;;;;;;;50.70;21.65;;;;;;;1.83;100.00;101224.44;5068648;28;20032;-73
2021/01/13 08:20:04;;;;;;;46.20;21.80;;;;;;;1.85;100.00;101211.19;5065557;28;20116;-73
2021/01/13 08:22:30;;;;;;;52.28;21.95;;;;;;;1.83;100.00;101216.50;5063195;28;20529;-73
2021/01/13 08:25:08;;;;;;;41.67;23.10;;;;;;;1.87;100.00;101206.72;5067695;28;20032;-73
2021/01/13 08:27:33;;;;;;;54.60;23.45;;;;;;;1.89;100.00;101210.22;5081703;28;20060;-73
2021/01/13 08:29:59;;;;;;;60.83;24.88;;;;;;;1.79;100.00;101208.69;5066732;28;20174;-73
2021/01/13 08:32:54;;;;;;;52.70;23.75;;;;;;;1.95;100.00;101212.72;5059362;28;20024;-73
2021/01/13 08:35:31;;;;;;;66.13;25.08;;;;;;;2.01;100.00;101207.31;5069890;28;20048;-73
2021/01/13 08:38:08;;;;;;;55.42;25.02;;;;;;;1.95;100.00;101203.03;5078183;28;20060;-73
2021/01/13 08:40:35;;;;;;;48.05;24.38;;;;;;;2.09;100.00;101204.50;5067626;28;20020;-73
2021/01/13 08:43:13;;;;;;;63.30;25.58;;;;;;;2.16;100.00;101209.59;5080350;28;20040;-73
2021/01/13 08:45:38;;;;;;;53.88;23.52;;;;;;;2.17;100.00;101208.69;5074981;28;20047;-73
2021/01/13 08:48:08;;;;;;;51.67;24.77;;;;;;;2.16;100.00;101203.47;5049475;28;20035;-73
2021/01/13 08:50:34;;;;;;;56.47;24.40;;;;;;;2.25;100.00;101200.59;5076611;28;20050;-73
2021/01/13 08:53:02;;;;;;;54.15;21.70;;;;;;;2.23;100.00;101203.28;5066095;28;20441;-73
2021/01/13 08:55:28;;;;;;;62.53;23.08;;;;;;;2.32;100.00;101208.38;5066747;28;20036;-73
2021/01/13 08:58:00;;;;;;;43.88;20.95;;;;;;;2.31;100.00;101209.28;5071468;28;20398;-73
2021/01/13 09:00:28;;;;;;;49.45;21.27;;;;;;;2.37;100.00;101206.50;5072193;28;20097;-73
2021/01/13 09:03:10;;;;;;;58.05;22.63;;;;;;;2.32;100.00;101197.78;5082876;28;20515;-73
2021/01/13 09:05:39;;;;;;;51.88;20.58;;;;;;;2.32;100.00;101192.47;5090182;28;20111;-73
2021/01/13 09:08:06;;;;;;;45.10;21.45;;;;;;;2.44;100.00;101197.50;5073457;28;20060;-72
2021/01/13 09:10:52;;;;;;;38.22;19.88;;;;;;;2.55;100.00;101199.00;5077362;28;20463;-73
2021/01/13 09:13:27;;;;;;;46.92;19.45;;;;;;;2.54;100.00;101197.25;5069650;28;20388;-73
2021/01/13 09:15:53;;;;;;;48.92;20.73;;;;;;;2.54;100.00;101194.59;5073304;28;20032;-73
2021/01/13 09:18:21;;;;;;;56.38;22.25;;;;;;;2.47;100.00;101196.53;5064874;28;20042;-73
2021/01/13 09:20:50;;;;;;;51.90;21.52;;;;;;;2.42;100.00;101195.78;5075108;28;20043;-73
2021/01/13 09:23:22;;;;;;;46.70;21.25;;;;;;;2.54;100.00;101189.31;5072690;28;20380;-73
2021/01/13 09:25:55;;;;;;;48.13;20.33;;;;;;;2.62;100.00;101197.97;5062416;28;20555;-73
2021/01/13 09:28:20;;;;;;;43.90;21.02;;;;;;;2.64;100.00;101199.69;5076903;28;20101;-73
2021/01/13 09:30:46;;;;;;;50.00;19.90;;;;;;;2.61;100.00;101196.22;5069591;28;20494;-73
2021/01/13 09:33:14;;;;;;;47.03;21.25;;;;;;;2.56;100.00;101195.47;5060971;28;20068;-76
2021/01/13 09:35:44;;;;;;;47.22;21.58;;;;;;;2.47;100.00;101198.34;5079365;28;20035;-73
2021/01/13 09:38:15;;;;;;;47.30;19.30;;;;;;;2.61;100.00;101194.44;5058327;28;20490;-73
2021/01/13 09:40:59;;;;;;;39.70;20.25;;;;;;;2.71;100.00;101200.41;5091613;28;20118;-73
2021/01/13 09:43:33;;;;;;;38.42;19.63;;;;;;;2.58;100.00;101199.81;5084557;28;20040;-73
2021/01/13 09:46:03;;;;;;;40.90;18.70;;;;;;;2.69;100.00;101205.72;5101704;28;20036;-73
2021/01/13 09:48:32;;;;;;;50.90;19.55;;;;;;;2.75;100.00;101207.38;5060019;28;20033;-73
2021/01/13 09:51:00;;;;;;;41.42;19.08;;;;;;;2.82;100.00;101208.97;5061451;28;20036;-73
2021/01/13 09:53:47;;;;;;;42.03;18.88;;;;;;;2.81;100.00;101200.13;5055688;28;20036;-73
2021/01/13 09:56:13;;;;;;;48.38;20.25;;;;;;;2.84;100.00;101207.13;5062710;28;20032;-72
2021/01/13 09:58:40;;;;;;;44.53;20.35;;;;;;;2.88;100.00;101208.81;5065920;28;20531;-72
2021/01/13 10:01:10;;;;;;;41.08;20.05;;;;;;;2.94;100.00;101198.03;5063273;28;20044;-72
2021/01/13 10:03:37;;;;;;;46.85;20.52;;;;;;;2.97;100.00;101197.94;5062533;28;20453;-73
2021/01/13 10:06:10;;;;;;;48.33;22.55;;;;;;;3.07;100.00;101188.88;5062473;28;20036;-73
2021/01/13 10:08:36;;;;;;;49.92;21.63;;;;;;;3.12;100.00;101192.25;5056491;28;20163;-72
2021/01/13 10:11:02;;;;;;;55.95;22.75;;;;;;;3.19;100.00;101199.16;5062286;28;20787;-73
2021/01/13 10:13:30;;;;;;;52.33;21.73;;;;;;;3.24;100.00;101199.91;5072544;28;20043;-72
2021/01/13 10:16:00;;;;;;;48.97;22.63;;;;;;;3.28;100.00;101197.16;5066235;28;20040;-72
2021/01/13 10:18:28;;;;;;;41.25;20.42;;;;;;;3.25;100.00;101195.47;5059280;28;20067;-72
2021/01/13 10:20:55;;;;;;;46.00;20.50;;;;;;;3.37;100.00;101202.22;5067262;28;20032;-72
2021/01/13 10:23:25;;;;;;;40.17;20.73;;;;;;;3.33;100.00;101189.97;5082406;28;20028;-73
2021/01/13 10:26:01;;;;;;;47.15;20.35;;;;;;;3.44;100.00;101195.84;5071747;28;20032;-72
2021/01/13 10:28:28;;;;;;;48.42;20.85;;;;;;;3.45;100.00;101195.81;5050214;28;20474;-72
2021/01/13 10:30:53;;;;;;;53.65;21.83;;;;;;;3.45;100.00;101184.31;5078053;28;20036;-72
2021/01/13 10:33:42;;;;;;;43.15;21.25;;;;;;;3.50;100.00;101179.75;5080727;28;20137;-72
2021/01/13 10:36:08;;;;;;;43.30;20.58;;;;;;;3.45;100.00;101182.53;5079499;28;20064;-72
2021/01/13 10:38:37;;;;;;;46.88;22.27;;;;;;;3.50;100.00;101175.31;5076667;28;20020;-72
2021/01/13 10:41:04;;;;;;;45.15;20.20;;;;;;;3.53;100.00;101179.66;5064097;28;20039;-72
2021/01/13 10:43:32;;;;;;;49.90;22.40;;;;;;;3.62;100.00;101176.75;5073263;28;20147;-72
2021/01/13 10:45:59;;;;;;;44.70;21.42;;;;;;;3.58;100.00;101175.09;5078346;28;20033;-72
2021/01/13 10:48:24;;;;;;;47.55;21.88;;;;;;;3.70;100.00;101169.44;5087476;28;20118;-72
2021/01/13 10:50:53;;;;;;;53.55;21.20;;;;;;;3.56;100.00;101167.19;5080764;28;20107;-72
2021/01/13 10:53:29;;;;;;;48.80;21.85;;;;;;;3.60;100.00;101175.91;5062099;28;20037;-72
2021/01/13 10:56:07;;;;;;;40.20;21.02;;;;;;;3.59;100.00;101159.09;5076457;28;20158;-72
2021/01/13 10:58:36;;;;;;;51.83;22.05;;;;;;;3.71;100.00;101167.63;5078955;28;20044;-72
2021/01/13 11:01:05;;;;;;;51.58;21.02;;;;;;;3.69;100.00;101162.38;5072270;28;20114;-72
2021/01/13 11:03:34;;;;;;;44.30;21.10;;;;;;;3.70;100.00;101157.94;5078519;28;20329;-72
2021/01/13 11:06:00;;;;;;;48.72;20.50;;;;;;;3.72;100.00;101164.94;5064948;28;20041;-72
2021/01/13 11:08:31;;;;;;;37.38;20.38;;;;;;;3.75;100.00;101175.47;5093224;28;20407;-72
2021/01/13 11:11:07;;;;;;;45.17;20.75;;;;;;;3.64;100.00;101157.19;5074014;28;20041;-72
2021/01/13 11:13:43;;;;;;;54.47;21.00;;;;;;;3.71;100.00;101155.22;5072266;28;20029;-72
2021/01/13 11:16:09;;;;;;;47.88;20.55;;;;;;;3.85;100.00;101157.47;5072405;28;20037;-72
2021/01/13 11:18:36;;;;;;;46.65;18.98;;;;;;;3.83;100.00;101154.88;5059581;28;20086;-72
2021/01/13 11:21:07;;;;;;;43.42;19.75;;;;;;;3.91;100.00;101152.88;5062329;28;20047;-72
2021/01/13 11:23:44;;;;;;;38.97;17.65;;;;;;;3.97;100.00;101142.06;5078203;28;20464;-72
2021/01/13 11:26:10;;;;;;;34.60;17.10;;;;;;;4.03;100.00;101147.19;5058149;28;20475;-72
2021/01/13 11:28:43;;;;;;;45.50;16.52;;;;;;;4.06;100.00;101133.81;5080590;28;20077;-73
2021/01/13 11:31:11;;;;;;;40.97;16.80;;;;;;;4.26;100.00;101143.78;5053530;28;20032;-72
2021/01/13 11:33:44;;;;;;;35.58;14.75;;;;;;;4.32;100.00;101143.59;5059328;28;20037;-72